Time,TemperatureF,DewpointF,PressureIn,WindDirection,WindDirectionDegrees,WindSpeedMPH,WindSpeedGustMPH,Humidity,HourlyPrecipIn,Conditions,Clouds,dailyrainin,SolarRadiationWatts/m^2,SoftwareType,DateUTC
2013-02-16 00:21:00,30.0,25.0,-100.00,East,90,4.0,5.0,82,0.00,,,0.00,1.000000,,2013-02-16 08:21:00,
2013-02-16 00:31:00,30.0,25.0,-100.00,East,90,4.0,5.0,82,0.00,,,0.00,1.000000,,2013-02-16 08:31:00,
2013-02-16 00:41:00,30.0,25.0,-100.00,East,90,4.0,5.0,82,0.00,,,0.00,1.000000,,2013-02-16 08:41:00,
2013-02-16 00:52:00,30.0,25.0,-100.00,East,90,4.0,5.0,82,0.00,,,0.00,1.000000,,2013-02-16 08:52:00,
2013-02-16 01:21:00,27.0,24.0,-100.00,East,88,4.0,5.0,89,0.00,,,0.00,1.000000,,2013-02-16 09:21:00,
2013-02-16 01:31:00,27.0,24.0,-100.00,East,88,4.0,5.0,89,0.00,,,0.00,1.000000,,2013-02-16 09:31:00,
2013-02-16 01:42:00,27.0,24.0,-100.00,East,88,4.0,5.0,89,0.00,,,0.00,1.000000,,2013-02-16 09:42:00,
2013-02-16 01:51:00,27.0,24.0,-100.00,East,88,4.0,5.0,89,0.00,,,0.00,1.000000,,2013-02-16 09:51:00,
2013-02-16 02:21:00,28.0,25.0,-100.00,ESE,113,3.0,6.0,88,0.00,,,0.00,1.000000,,2013-02-16 10:21:00,
2013-02-16 02:31:00,28.0,25.0,-100.00,ESE,113,3.0,6.0,88,0.00,,,0.00,1.000000,,2013-02-16 10:31:00,
2013-02-16 02:41:00,28.0,25.0,-100.00,ESE,113,3.0,6.0,88,0.00,,,0.00,1.000000,,2013-02-16 10:41:00,
2013-02-16 02:51:00,28.0,25.0,-100.00,ESE,113,3.0,6.0,88,0.00,,,0.00,1.000000,,2013-02-16 10:51:00,
2013-02-16 03:22:00,26.0,23.0,-100.00,East,82,3.0,4.0,88,0.00,,,0.00,1.000000,,2013-02-16 11:22:00,
2013-02-16 03:31:00,26.0,23.0,-100.00,East,82,3.0,4.0,88,0.00,,,0.00,1.000000,,2013-02-16 11:31:00,
2013-02-16 03:42:00,26.0,23.0,-100.00,East,82,3.0,4.0,88,0.00,,,0.00,1.000000,,2013-02-16 11:42:00,
2013-02-16 03:52:00,26.0,23.0,-100.00,East,82,3.0,4.0,88,0.00,,,0.00,1.000000,,2013-02-16 11:52:00,
2013-02-16 04:22:00,25.0,23.0,-100.00,East,92,3.0,4.0,91,0.00,,,-99.99,1.000000,,2013-02-16 12:22:00,
2013-02-16 04:32:00,25.0,23.0,-100.00,East,92,3.0,4.0,91,0.00,,,-99.99,1.000000,,2013-02-16 12:32:00,
2013-02-16 04:42:00,25.0,23.0,-100.00,East,92,3.0,4.0,91,0.00,,,-99.99,1.000000,,2013-02-16 12:42:00,
2013-02-16 04:52:00,25.0,23.0,-100.00,East,92,3.0,4.0,91,0.00,,,-99.99,1.000000,,2013-02-16 12:52:00,
2013-02-16 05:21:00,26.0,24.0,-100.00,ENE,68,2.0,5.0,92,0.00,,,-99.99,1.000000,,2013-02-16 13:21:00,
2013-02-16 05:31:00,26.0,24.0,-100.00,ENE,68,2.0,5.0,92,0.00,,,-99.99,1.000000,,2013-02-16 13:31:00,
2013-02-16 05:41:00,26.0,24.0,-100.00,ENE,68,2.0,5.0,92,0.00,,,-99.99,1.000000,,2013-02-16 13:41:00,
2013-02-16 05:51:00,26.0,24.0,-100.00,ENE,68,2.0,5.0,92,0.00,,,-99.99,1.000000,,2013-02-16 13:51:00,
2013-02-16 06:21:00,24.0,23.0,-100.00,East,93,3.0,5.0,94,0.00,,,0.00,1.000000,,2013-02-16 14:21:00,
2013-02-16 06:32:00,24.0,23.0,-100.00,East,93,3.0,5.0,94,0.00,,,0.00,1.000000,,2013-02-16 14:32:00,
2013-02-16 06:41:00,24.0,23.0,-100.00,East,93,3.0,5.0,94,0.00,,,0.00,1.000000,,2013-02-16 14:41:00,
2013-02-16 06:52:00,24.0,23.0,-100.00,East,93,3.0,5.0,94,0.00,,,0.00,1.000000,,2013-02-16 14:52:00,
2013-02-16 07:21:00,25.0,23.0,-100.00,East,82,3.0,4.0,92,0.00,,,0.00,1.000000,,2013-02-16 15:21:00,
2013-02-16 07:31:00,25.0,23.0,-100.00,East,82,3.0,4.0,92,0.00,,,0.00,1.000000,,2013-02-16 15:31:00,
2013-02-16 07:41:00,25.0,23.0,-100.00,East,82,3.0,4.0,92,0.00,,,0.00,1.000000,,2013-02-16 15:41:00,
2013-02-16 07:51:00,25.0,23.0,-100.00,East,82,3.0,4.0,92,0.00,,,0.00,1.000000,,2013-02-16 15:51:00,
2013-02-16 08:21:00,24.0,22.0,-100.00,East,89,4.0,5.0,92,0.00,,,0.00,22.000000,,2013-02-16 16:21:00,
2013-02-16 08:32:00,24.0,22.0,-100.00,East,89,4.0,5.0,92,0.00,,,0.00,22.000000,,2013-02-16 16:32:00,
2013-02-16 08:41:00,24.0,22.0,-100.00,East,89,4.0,5.0,92,0.00,,,0.00,22.000000,,2013-02-16 16:41:00,
2013-02-16 08:51:00,24.0,22.0,-100.00,East,89,4.0,5.0,92,0.00,,,0.00,22.000000,,2013-02-16 16:51:00,
2013-02-16 09:21:00,37.0,29.0,-100.00,ENE,66,1.0,7.0,72,0.00,,,0.00,208.000000,,2013-02-16 17:21:00,
2013-02-16 09:32:00,37.0,29.0,-100.00,ENE,66,1.0,7.0,72,0.00,,,0.00,208.000000,,2013-02-16 17:32:00,
2013-02-16 09:41:00,37.0,29.0,-100.00,ENE,66,1.0,7.0,72,0.00,,,0.00,208.000000,,2013-02-16 17:41:00,
2013-02-16 09:52:00,37.0,29.0,-100.00,ENE,66,1.0,7.0,72,0.00,,,0.00,208.000000,,2013-02-16 17:52:00,
2013-02-16 10:21:00,39.0,28.0,-100.00,SSW,197,4.0,6.0,64,0.00,,,0.00,315.000000,,2013-02-16 18:21:00,
2013-02-16 10:33:00,39.0,28.0,-100.00,SSW,197,4.0,6.0,64,0.00,,,0.00,315.000000,,2013-02-16 18:33:00,
2013-02-16 10:42:00,39.0,28.0,-100.00,SSW,197,4.0,6.0,64,0.00,,,0.00,315.000000,,2013-02-16 18:42:00,
2013-02-16 10:51:00,39.0,28.0,-100.00,SSW,197,4.0,6.0,64,0.00,,,0.00,315.000000,,2013-02-16 18:51:00,
2013-02-16 11:21:00,43.0,30.0,-100.00,WSW,248,5.0,8.0,59,0.00,,,0.00,234.000000,,2013-02-16 19:21:00,
2013-02-16 11:31:00,43.0,30.0,-100.00,WSW,248,5.0,8.0,59,0.00,,,0.00,234.000000,,2013-02-16 19:31:00,
2013-02-16 11:42:00,43.0,30.0,-100.00,WSW,248,5.0,8.0,59,0.00,,,0.00,234.000000,,2013-02-16 19:42:00,
2013-02-16 11:52:00,43.0,30.0,-100.00,WSW,248,5.0,8.0,59,0.00,,,0.00,234.000000,,2013-02-16 19:52:00,
2013-02-16 12:21:00,48.0,29.0,-100.00,SW,219,8.0,10.0,48,0.00,,,0.00,601.000000,,2013-02-16 20:21:00,
2013-02-16 12:32:00,48.0,29.0,-100.00,SW,219,8.0,10.0,48,0.00,,,0.00,601.000000,,2013-02-16 20:32:00,
2013-02-16 12:42:00,48.0,29.0,-100.00,SW,219,8.0,10.0,48,0.00,,,0.00,601.000000,,2013-02-16 20:42:00,
2013-02-16 12:52:00,48.0,29.0,-100.00,SW,219,8.0,10.0,48,0.00,,,0.00,601.000000,,2013-02-16 20:52:00,
2013-02-16 13:21:00,53.0,28.0,-100.00,WSW,257,8.0,12.0,38,0.00,,,0.00,655.000000,,2013-02-16 21:21:00,
2013-02-16 13:31:00,53.0,28.0,-100.00,WSW,257,8.0,12.0,38,0.00,,,0.00,655.000000,,2013-02-16 21:31:00,
2013-02-16 13:41:00,53.0,28.0,-100.00,WSW,257,8.0,12.0,38,0.00,,,0.00,655.000000,,2013-02-16 21:41:00,
2013-02-16 13:52:00,53.0,28.0,-100.00,WSW,257,8.0,12.0,38,0.00,,,0.00,655.000000,,2013-02-16 21:52:00,
2013-02-16 14:21:00,53.0,28.0,-100.00,West,263,8.0,17.0,38,0.00,,,0.00,637.000000,,2013-02-16 22:21:00,
2013-02-16 14:32:00,53.0,28.0,-100.00,West,263,8.0,17.0,38,0.00,,,0.00,637.000000,,2013-02-16 22:32:00,
2013-02-16 14:42:00,53.0,28.0,-100.00,West,263,8.0,17.0,38,0.00,,,0.00,637.000000,,2013-02-16 22:42:00,
2013-02-16 14:51:00,53.0,28.0,-100.00,West,263,8.0,17.0,38,0.00,,,0.00,637.000000,,2013-02-16 22:51:00,
2013-02-16 15:21:00,51.0,29.0,-100.00,WSW,258,12.0,20.0,43,0.00,,,0.00,592.000000,,2013-02-16 23:21:00,
2013-02-16 15:31:00,51.0,29.0,-100.00,WSW,258,12.0,20.0,43,0.00,,,0.00,592.000000,,2013-02-16 23:31:00,
2013-02-16 15:42:00,51.0,29.0,-100.00,WSW,258,12.0,20.0,43,0.00,,,0.00,592.000000,,2013-02-16 23:42:00,
2013-02-16 15:52:00,51.0,29.0,-100.00,WSW,258,12.0,20.0,43,0.00,,,0.00,592.000000,,2013-02-16 23:52:00,
2013-02-16 16:21:00,50.0,29.0,-100.00,WSW,253,12.0,20.0,44,0.00,,,0.00,497.000000,,2013-02-17 00:21:00,
2013-02-16 16:31:00,50.0,29.0,-100.00,WSW,253,12.0,20.0,44,0.00,,,0.00,497.000000,,2013-02-17 00:31:00,
2013-02-16 16:41:00,50.0,29.0,-100.00,WSW,253,12.0,20.0,44,0.00,,,0.00,497.000000,,2013-02-17 00:41:00,
2013-02-16 16:51:00,50.0,29.0,-100.00,WSW,253,12.0,20.0,44,0.00,,,0.00,497.000000,,2013-02-17 00:51:00,
2013-02-16 17:21:00,46.0,26.0,-100.00,WSW,257,10.0,21.0,45,0.00,,,0.00,242.000000,,2013-02-17 01:21:00,
2013-02-16 17:31:00,46.0,26.0,-100.00,WSW,257,10.0,21.0,45,0.00,,,0.00,242.000000,,2013-02-17 01:31:00,
2013-02-16 17:41:00,46.0,26.0,-100.00,WSW,257,10.0,21.0,45,0.00,,,0.00,242.000000,,2013-02-17 01:41:00,
2013-02-16 17:52:00,46.0,26.0,-100.00,WSW,257,10.0,21.0,45,0.00,,,0.00,242.000000,,2013-02-17 01:52:00,
2013-02-16 18:21:00,41.0,28.0,-100.00,West,274,11.0,21.0,59,0.00,,,0.00,20.000000,,2013-02-17 02:21:00,
2013-02-16 18:31:00,41.0,28.0,-100.00,West,274,11.0,21.0,59,0.00,,,0.00,20.000000,,2013-02-17 02:31:00,
2013-02-16 18:41:00,41.0,28.0,-100.00,West,274,11.0,21.0,59,0.00,,,0.00,20.000000,,2013-02-17 02:41:00,
2013-02-16 18:51:00,41.0,28.0,-100.00,West,274,11.0,21.0,59,0.00,,,0.00,20.000000,,2013-02-17 02:51:00,
2013-02-16 19:11:00,37.0,21.0,-100.00,West,264,5.0,15.0,53,0.00,,,0.00,1.000000,,2013-02-17 03:11:00,
2013-02-16 19:21:00,37.0,21.0,-100.00,West,264,5.0,15.0,53,0.00,,,0.00,1.000000,,2013-02-17 03:21:00,
2013-02-16 19:31:00,37.0,21.0,-100.00,West,264,5.0,15.0,53,0.00,,,0.00,1.000000,,2013-02-17 03:31:00,
2013-02-16 19:42:00,37.0,21.0,-100.00,West,264,5.0,15.0,53,0.00,,,0.00,1.000000,,2013-02-17 03:42:00,
2013-02-16 19:51:00,37.0,21.0,-100.00,West,264,5.0,15.0,53,0.00,,,0.00,1.000000,,2013-02-17 03:51:00,
2013-02-16 20:21:00,34.0,20.0,-100.00,West,270,3.0,8.0,55,0.00,,,0.00,1.000000,,2013-02-17 04:21:00,
2013-02-16 20:31:00,34.0,20.0,-100.00,West,270,3.0,8.0,55,0.00,,,0.00,1.000000,,2013-02-17 04:31:00,
2013-02-16 20:41:00,34.0,20.0,-100.00,West,270,3.0,8.0,55,0.00,,,0.00,1.000000,,2013-02-17 04:41:00,
2013-02-16 20:51:00,34.0,20.0,-100.00,West,270,3.0,8.0,55,0.00,,,0.00,1.000000,,2013-02-17 04:51:00,
2013-02-16 21:22:00,32.0,16.0,-100.00,WNW,303,6.0,9.0,52,0.00,,,0.00,1.000000,,2013-02-17 05:22:00,
2013-02-16 21:32:00,32.0,16.0,-100.00,WNW,303,6.0,9.0,52,0.00,,,0.00,1.000000,,2013-02-17 05:32:00,
2013-02-16 21:42:00,32.0,16.0,-100.00,WNW,303,6.0,9.0,52,0.00,,,0.00,1.000000,,2013-02-17 05:42:00,
2013-02-16 21:52:00,32.0,16.0,-100.00,WNW,303,6.0,9.0,52,0.00,,,0.00,1.000000,,2013-02-17 05:52:00,
2013-02-16 22:21:00,29.0,18.0,-100.00,NW,309,7.0,11.0,62,0.00,,,0.00,1.000000,,2013-02-17 06:21:00,
2013-02-16 22:31:00,29.0,18.0,-100.00,NW,309,7.0,11.0,62,0.00,,,0.00,1.000000,,2013-02-17 06:31:00,
2013-02-16 22:41:00,29.0,18.0,-100.00,NW,309,7.0,11.0,62,0.00,,,0.00,1.000000,,2013-02-17 06:41:00,
2013-02-16 22:51:00,29.0,18.0,-100.00,NW,309,7.0,11.0,62,0.00,,,0.00,1.000000,,2013-02-17 06:51:00,
2013-02-16 23:21:00,27.0,18.0,-100.00,East,81,2.0,9.0,69,0.00,,,0.00,1.000000,,2013-02-17 07:21:00,
2013-02-16 23:31:00,27.0,18.0,-100.00,East,81,2.0,9.0,69,0.00,,,0.00,1.000000,,2013-02-17 07:31:00,
2013-02-16 23:41:00,27.0,18.0,-100.00,East,81,2.0,9.0,69,0.00,,,0.00,1.000000,,2013-02-17 07:41:00,
2013-02-16 23:51:00,27.0,18.0,-100.00,East,81,2.0,9.0,69,0.00,,,0.00,1.000000,,2013-02-17 07:51:00,